sensor_id;sensor_type;location;lat;lon;timestamp;pressure;altitude;pressure_sealevel;temperature;humidity
80323;BME280;69636;52.372;13.610;2024-02-14T00:00:57;101687.53;;;0.89;100.00
80323;BME280;69636;52.372;13.610;2024-02-14T00:03:24;101679.81;;;0.86;100.00
80323;BME280;69636;52.372;13.610;2024-02-14T00:05:54;101680.59;;;0.88;100.00
80323;BME280;69636;52.372;13.610;2024-02-14T00:08:22;101682.88;;;0.95;100.00
80323;BME280;69636;52.372;13.610;2024-02-14T00:10:49;101685.44;;;0.97;100.00
80323;BME280;69636;52.372;13.610;2024-02-14T00:13:18;101681.53;;;1.06;100.00
80323;BME280;69636;52.372;13.610;2024-02-14T00:15:46;101675.31;;;1.08;100.00
80323;BME280;69636;52.372;13.610;2024-02-14T00:18:14;101678.38;;;0.99;100.00
80323;BME280;69636;52.372;13.610;2024-02-14T00:20:41;101678.63;;;0.93;100.00
80323;BME280;69636;52.372;13.610;2024-02-14T00:23:09;101672.50;;;0.94;100.00
80323;BME280;69636;52.372;13.610;2024-02-14T00:25:37;101666.78;;;1.23;100.00
80323;BME280;69636;52.372;13.610;2024-02-14T00:28:05;101669.09;;;1.11;100.00
80323;BME280;69636;52.372;13.610;2024-02-14T00:30:34;101677.84;;;0.91;100.00
80323;BME280;69636;52.372;13.610;2024-02-14T00:33:02;101680.09;;;0.80;100.00
80323;BME280;69636;52.372;13.610;2024-02-14T00:35:30;101687.84;;;0.81;100.00
80323;BME280;69636;52.372;13.610;2024-02-14T00:37:57;101676.88;;;0.93;100.00
80323;BME280;69636;52.372;13.610;2024-02-14T00:40:24;101675.50;;;0.85;100.00
80323;BME280;69636;52.372;13.610;2024-02-14T00:42:52;101683.34;;;0.85;100.00
80323;BME280;69636;52.372;13.610;2024-02-14T00:45:19;101688.19;;;0.94;100.00
80323;BME280;69636;52.372;13.610;2024-02-14T00:47:49;101687.19;;;0.96;100.00
80323;BME280;69636;52.372;13.610;2024-02-14T00:50:17;101689.94;;;0.93;100.00
80323;BME280;69636;52.372;13.610;2024-02-14T00:52:44;101684.06;;;0.88;100.00
80323;BME280;69636;52.372;13.610;2024-02-14T00:55:11;101691.56;;;0.96;100.00
80323;BME280;69636;52.372;13.610;2024-02-14T00:57:39;101681.91;;;0.98;100.00
80323;BME280;69636;52.372;13.610;2024-02-14T01:00:07;101683.88;;;1.12;100.00
80323;BME280;69636;52.372;13.610;2024-02-14T01:02:35;101691.66;;;1.13;100.00
80323;BME280;69636;52.372;13.610;2024-02-14T01:05:05;101697.66;;;1.15;100.00
80323;BME280;69636;52.372;13.610;2024-02-14T01:07:33;101684.25;;;1.23;100.00
80323;BME280;69636;52.372;13.610;2024-02-14T01:10:00;101693.56;;;1.28;100.00
80323;BME280;69636;52.372;13.610;2024-02-14T01:12:27;101688.94;;;1.33;100.00
80323;BME280;69636;52.372;13.610;2024-02-14T01:14:56;101691.31;;;1.21;100.00
80323;BME280;69636;52.372;13.610;2024-02-14T01:17:24;101694.13;;;1.16;100.00
80323;BME280;69636;52.372;13.610;2024-02-14T01:19:51;101689.03;;;1.13;100.00
80323;BME280;69636;52.372;13.610;2024-02-14T01:22:20;101681.97;;;1.15;100.00
80323;BME280;69636;52.372;13.610;2024-02-14T01:24:47;101684.88;;;1.28;100.00
80323;BME280;69636;52.372;13.610;2024-02-14T01:27:15;101686.66;;;1.27;100.00
80323;BME280;69636;52.372;13.610;2024-02-14T01:29:42;101677.44;;;1.19;100.00
80323;BME280;69636;52.372;13.610;2024-02-14T01:32:10;101679.22;;;1.18;100.00
80323;BME280;69636;52.372;13.610;2024-02-14T01:34:38;101679.22;;;1.18;100.00
80323;BME280;69636;52.372;13.610;2024-02-14T01:37:05;101675.75;;;1.18;100.00
80323;BME280;69636;52.372;13.610;2024-02-14T01:39:34;101666.84;;;1.22;100.00
80323;BME280;69636;52.372;13.610;2024-02-14T01:42:02;101667.69;;;1.22;100.00
80323;BME280;69636;52.372;13.610;2024-02-14T01:44:29;101666.84;;;1.22;100.00
80323;BME280;69636;52.372;13.610;2024-02-14T01:46:57;101675.88;;;1.33;100.00
80323;BME280;69636;52.372;13.610;2024-02-14T01:49:25;101672.78;;;1.25;100.00
80323;BME280;69636;52.372;13.610;2024-02-14T01:51:53;101667.56;;;1.25;100.00
80323;BME280;69636;52.372;13.610;2024-02-14T01:54:22;101667.94;;;1.35;100.00
80323;BME280;69636;52.372;13.610;2024-02-14T01:56:52;101663.56;;;1.35;100.00
80323;BME280;69636;52.372;13.610;2024-02-14T01:59:20;101656.63;;;1.34;100.00
80323;BME280;69636;52.372;13.610;2024-02-14T02:01:47;101657.22;;;1.41;100.00
80323;BME280;69636;52.372;13.610;2024-02-14T02:04:15;101646.03;;;1.38;100.00
80323;BME280;69636;52.372;13.610;2024-02-14T02:06:42;101642.63;;;1.35;100.00
80323;BME280;69636;52.372;13.610;2024-02-14T02:09:10;101644.75;;;1.46;100.00
80323;BME280;69636;52.372;13.610;2024-02-14T02:11:45;101648.28;;;1.45;100.00
80323;BME280;69636;52.372;13.610;2024-02-14T02:14:14;101652.13;;;1.38;100.00
80323;BME280;69636;52.372;13.610;2024-02-14T02:16:42;101640.38;;;1.47;100.00
80323;BME280;69636;52.372;13.610;2024-02-14T02:19:09;101643.00;;;1.64;100.00
80323;BME280;69636;52.372;13.610;2024-02-14T02:21:37;101642.72;;;1.53;100.00
80323;BME280;69636;52.372;13.610;2024-02-14T02:24:06;101639.25;;;1.52;100.00
80323;BME280;69636;52.372;13.610;2024-02-14T02:26:34;101640.66;;;1.41;100.00
80323;BME280;69636;52.372;13.610;2024-02-14T02:29:02;101634.78;;;1.35;100.00
80323;BME280;69636;52.372;13.610;2024-02-14T02:31:30;101628.94;;;1.30;100.00
80323;BME280;69636;52.372;13.610;2024-02-14T02:33:57;101629.78;;;1.31;100.00
80323;BME280;69636;52.372;13.610;2024-02-14T02:36:25;101628.00;;;1.31;100.00
80323;BME280;69636;52.372;13.610;2024-02-14T02:38:52;101630.34;;;1.38;100.00
80323;BME280;69636;52.372;13.610;2024-02-14T02:41:21;101622.69;;;1.52;100.00
80323;BME280;69636;52.372;13.610;2024-02-14T02:43:49;101617.91;;;1.43;100.00
80323;BME280;69636;52.372;13.610;2024-02-14T02:46:16;101622.84;;;1.49;100.00
80323;BME280;69636;52.372;13.610;2024-02-14T02:48:43;101623.41;;;1.36;100.00
80323;BME280;69636;52.372;13.610;2024-02-14T02:51:11;101628.94;;;1.30;100.00
80323;BME280;69636;52.372;13.610;2024-02-14T02:53:38;101623.56;;;1.33;100.00
80323;BME280;69636;52.372;13.610;2024-02-14T02:56:06;101620.94;;;1.33;100.00
80323;BME280;69636;52.372;13.610;2024-02-14T02:58:35;101621.56;;;1.39;100.00
80323;BME280;69636;52.372;13.610;2024-02-14T03:01:07;101615.78;;;1.32;100.00
80323;BME280;69636;52.372;13.610;2024-02-14T03:03:35;101617.47;;;1.33;100.00
80323;BME280;69636;52.372;13.610;2024-02-14T03:06:03;101627.88;;;1.34;100.00
80323;BME280;69636;52.372;13.610;2024-02-14T03:08:32;101622.16;;;1.26;100.00
80323;BME280;69636;52.372;13.610;2024-02-14T03:11:04;101614.53;;;1.22;100.00
80323;BME280;69636;52.372;13.610;2024-02-14T03:13:32;101618.78;;;1.24;100.00
80323;BME280;69636;52.372;13.610;2024-02-14T03:16:01;101614.69;;;1.19;100.00
80323;BME280;69636;52.372;13.610;2024-02-14T03:18:28;101608.94;;;1.29;100.00
80323;BME280;69636;52.372;13.610;2024-02-14T03:20:56;101616.47;;;1.35;100.00
80323;BME280;69636;52.372;13.610;2024-02-14T03:23:23;101606.78;;;1.38;100.00
80323;BME280;69636;52.372;13.610;2024-02-14T03:25:50;101607.84;;;1.33;100.00
80323;BME280;69636;52.372;13.610;2024-02-14T03:28:18;101615.75;;;1.51;100.00
80323;BME280;69636;52.372;13.610;2024-02-14T03:30:45;101604.81;;;1.43;100.00
80323;BME280;69636;52.372;13.610;2024-02-14T03:33:14;101602.56;;;1.35;100.00
80323;BME280;69636;52.372;13.610;2024-02-14T03:35:42;101598.94;;;1.38;100.00
80323;BME280;69636;52.372;13.610;2024-02-14T03:38:09;101596.97;;;1.43;100.00
80323;BME280;69636;52.372;13.610;2024-02-14T03:40:37;101600.84;;;1.34;100.00
80323;BME280;69636;52.372;13.610;2024-02-14T03:43:04;101596.13;;;1.42;100.00
80323;BME280;69636;52.372;13.610;2024-02-14T03:45:31;101607.34;;;1.44;100.00
80323;BME280;69636;52.372;13.610;2024-02-14T03:47:59;101601.44;;;1.58;100.00
80323;BME280;69636;52.372;13.610;2024-02-14T03:50:27;101594.22;;;1.63;100.00
80323;BME280;69636;52.372;13.610;2024-02-14T03:52:55;101590.13;;;1.57;100.00
80323;BME280;69636;52.372;13.610;2024-02-14T03:55:22;101589.13;;;1.60;100.00
80323;BME280;69636;52.372;13.610;2024-02-14T03:57:49;101582.53;;;1.53;100.00
80323;BME280;69636;52.372;13.610;2024-02-14T04:00:17;101590.22;;;1.56;100.00
80323;BME280;69636;52.372;13.610;2024-02-14T04:02:46;101592.66;;;1.59;100.00
80323;BME280;69636;52.372;13.610;2024-02-14T04:05:13;101593.50;;;1.59;100.00
80323;BME280;69636;52.372;13.610;2024-02-14T04:07:42;101589.13;;;1.60;100.00
80323;BME280;69636;52.372;13.610;2024-02-14T04:10:09;101588.06;;;1.64;100.00
80323;BME280;69636;52.372;13.610;2024-02-14T04:12:37;101579.53;;;1.78;100.00
80323;BME280;69636;52.372;13.610;2024-02-14T04:15:05;101578.06;;;1.89;100.00
80323;BME280;69636;52.372;13.610;2024-02-14T04:17:33;101576.06;;;1.77;100.00
80323;BME280;69636;52.372;13.610;2024-02-14T04:20:02;101581.59;;;1.71;100.00
80323;BME280;69636;52.372;13.610;2024-02-14T04:22:30;101580.53;;;1.75;100.00
80323;BME280;69636;52.372;13.610;2024-02-14T04:24:59;101577.84;;;1.77;100.00
80323;BME280;69636;52.372;13.610;2024-02-14T04:27:28;101585.47;;;1.81;100.00
80323;BME280;69636;52.372;13.610;2024-02-14T04:29:55;101580.38;;;1.78;100.00
80323;BME280;69636;52.372;13.610;2024-02-14T04:32:23;101584.38;;;1.68;100.00
80323;BME280;69636;52.372;13.610;2024-02-14T04:34:50;101585.28;;;1.67;100.00
80323;BME280;69636;52.372;13.610;2024-02-14T04:37:18;101587.75;;;1.70;100.00
80323;BME280;69636;52.372;13.610;2024-02-14T04:39:48;101581.59;;;1.71;100.00
80323;BME280;69636;52.372;13.610;2024-02-14T04:42:17;101579.13;;;1.85;100.00
80323;BME280;69636;52.372;13.610;2024-02-14T04:44:44;101569.66;;;1.83;100.00
80323;BME280;69636;52.372;13.610;2024-02-14T04:47:11;101575.59;;;1.86;100.00
80323;BME280;69636;52.372;13.610;2024-02-14T04:49:39;101564.34;;;2.01;100.00
80323;BME280;69636;52.372;13.610;2024-02-14T04:52:06;101561.13;;;1.96;100.00
80323;BME280;69636;52.372;13.610;2024-02-14T04:54:33;101559.72;;;1.89;100.00
80323;BME280;69636;52.372;13.610;2024-02-14T04:57:01;101566.34;;;1.96;100.00
80323;BME280;69636;52.372;13.610;2024-02-14T04:59:31;101559.41;;;1.95;100.00
80323;BME280;69636;52.372;13.610;2024-02-14T05:01:59;101568.59;;;2.04;100.00
80323;BME280;69636;52.372;13.610;2024-02-14T05:04:26;101549.09;;;1.92;100.00
80323;BME280;69636;52.372;13.610;2024-02-14T05:06:53;101556.00;;;2.11;100.00
80323;BME280;69636;52.372;13.610;2024-02-14T05:09:25;101546.28;;;2.13;100.00
80323;BME280;69636;52.372;13.610;2024-02-14T05:11:52;101551.44;;;2.31;100.00
80323;BME280;69636;52.372;13.610;2024-02-14T05:14:20;101546.66;;;2.22;100.00
80323;BME280;69636;52.372;13.610;2024-02-14T05:16:49;101543.28;;;2.20;100.00
80323;BME280;69636;52.372;13.610;2024-02-14T05:19:17;101547.59;;;2.21;100.00
80323;BME280;69636;52.372;13.610;2024-02-14T05:21:44;101547.06;;;2.15;100.00
80323;BME280;69636;52.372;13.610;2024-02-14T05:24:12;101551.44;;;2.31;100.00
80323;BME280;69636;52.372;13.610;2024-02-14T05:26:39;101543.91;;;2.41;100.00
80323;BME280;69636;52.372;13.610;2024-02-14T05:29:06;101537.66;;;2.28;100.00
80323;BME280;69636;52.372;13.610;2024-02-14T05:31:43;101537.03;;;2.23;100.00
80323;BME280;69636;52.372;13.610;2024-02-14T05:34:12;101526.41;;;2.26;100.00
80323;BME280;69636;52.372;13.610;2024-02-14T05:36:40;101528.94;;;2.27;100.00
80323;BME280;69636;52.372;13.610;2024-02-14T05:39:08;101529.03;;;2.26;100.00
80323;BME280;69636;52.372;13.610;2024-02-14T05:41:35;101519.72;;;2.36;100.00
80323;BME280;69636;52.372;13.610;2024-02-14T05:44:03;101517.72;;;2.41;100.00
80323;BME280;69636;52.372;13.610;2024-02-14T05:46:30;101510.84;;;2.38;100.00
80323;BME280;69636;52.372;13.610;2024-02-14T05:48:58;101512.38;;;2.43;100.00
80323;BME280;69636;52.372;13.610;2024-02-14T05:51:27;101512.66;;;2.54;100.00
80323;BME280;69636;52.372;13.610;2024-02-14T05:53:54;101513.66;;;2.67;100.00
80323;BME280;69636;52.372;13.610;2024-02-14T05:56:21;101508.88;;;2.59;100.00
80323;BME280;69636;52.372;13.610;2024-02-14T05:58:49;101505.47;;;2.57;100.00
80323;BME280;69636;52.372;13.610;2024-02-14T06:01:16;101508.19;;;2.56;100.00
80323;BME280;69636;52.372;13.610;2024-02-14T06:03:43;101502.78;;;2.75;100.00
80323;BME280;69636;52.372;13.610;2024-02-14T06:06:11;101495.84;;;2.73;100.00
80323;BME280;69636;52.372;13.610;2024-02-14T06:08:40;101501.31;;;2.69;100.00
80323;BME280;69636;52.372;13.610;2024-02-14T06:11:07;101500.41;;;2.86;100.00
80323;BME280;69636;52.372;13.610;2024-02-14T06:13:35;101499.72;;;2.66;100.00
80323;BME280;69636;52.372;13.610;2024-02-14T06:16:02;101504.47;;;2.76;100.00
80323;BME280;69636;52.372;13.610;2024-02-14T06:18:30;101507.25;;;2.72;100.00
80323;BME280;69636;52.372;13.610;2024-02-14T06:20:57;101507.00;;;2.77;100.00
80323;BME280;69636;52.372;13.610;2024-02-14T06:23:25;101498.53;;;2.88;100.00
80323;BME280;69636;52.372;13.610;2024-02-14T06:25:53;101505.13;;;2.95;100.00
80323;BME280;69636;52.372;13.610;2024-02-14T06:28:21;101503.28;;;2.81;100.00
80323;BME280;69636;52.372;13.610;2024-02-14T06:30:48;101507.50;;;2.84;100.00
80323;BME280;69636;52.372;13.610;2024-02-14T06:33:15;101505.06;;;2.81;100.00
80323;BME280;69636;52.372;13.610;2024-02-14T06:35:44;101503.44;;;2.94;100.00
80323;BME280;69636;52.372;13.610;2024-02-14T06:38:12;101506.81;;;2.96;100.00
80323;BME280;69636;52.372;13.610;2024-02-14T06:40:39;101510.38;;;3.11;100.00
80323;BME280;69636;52.372;13.610;2024-02-14T06:43:08;101501.38;;;3.15;100.00
80323;BME280;69636;52.372;13.610;2024-02-14T06:45:35;101502.22;;;3.15;100.00
80323;BME280;69636;52.372;13.610;2024-02-14T06:48:03;101504.06;;;3.13;100.00
80323;BME280;69636;52.372;13.610;2024-02-14T06:50:30;101504.28;;;3.10;100.00
80323;BME280;69636;52.372;13.610;2024-02-14T06:52:58;101491.34;;;3.07;100.00
80323;BME280;69636;52.372;13.610;2024-02-14T06:55:25;101499.19;;;3.07;100.00
80323;BME280;69636;52.372;13.610;2024-02-14T06:57:53;101495.97;;;3.02;100.00
80323;BME280;69636;52.372;13.610;2024-02-14T07:00:21;101490.69;;;3.18;100.00
80323;BME280;69636;52.372;13.610;2024-02-14T07:02:49;101484.09;;;3.26;100.00
80323;BME280;69636;52.372;13.610;2024-02-14T07:05:16;101490.00;;;3.30;100.00
80323;BME280;69636;52.372;13.610;2024-02-14T07:07:43;101482.91;;;3.32;100.00
80323;BME280;69636;52.372;13.610;2024-02-14T07:10:12;101480.72;;;3.38;100.00
80323;BME280;69636;52.372;13.610;2024-02-14T07:12:39;101484.97;;;3.41;100.00
80323;BME280;69636;52.372;13.610;2024-02-14T07:15:07;101483.81;;;3.61;100.00
80323;BME280;69636;52.372;13.610;2024-02-14T07:17:35;101487.31;;;3.46;100.00
80323;BME280;69636;52.372;13.610;2024-02-14T07:20:04;101486.19;;;3.35;100.00
80323;BME280;69636;52.372;13.610;2024-02-14T07:22:31;101480.78;;;3.53;100.00
80323;BME280;69636;52.372;13.610;2024-02-14T07:24:59;101489.41;;;3.55;100.00
80323;BME280;69636;52.372;13.610;2024-02-14T07:27:26;101484.19;;;3.69;100.00
80323;BME280;69636;52.372;13.610;2024-02-14T07:29:53;101483.44;;;3.67;100.00
80323;BME280;69636;52.372;13.610;2024-02-14T07:32:21;101480.25;;;3.76;100.00
80323;BME280;69636;52.372;13.610;2024-02-14T07:34:51;101462.53;;;3.80;100.00
80323;BME280;69636;52.372;13.610;2024-02-14T07:37:18;101455.03;;;4.02;100.00
80323;BME280;69636;52.372;13.610;2024-02-14T07:39:45;101454.19;;;4.01;100.00
80323;BME280;69636;52.372;13.610;2024-02-14T07:42:13;101448.19;;;4.14;100.00
80323;BME280;69636;52.372;13.610;2024-02-14T07:44:41;101449.47;;;4.21;100.00
80323;BME280;69636;52.372;13.610;2024-02-14T07:47:08;101457.56;;;4.18;100.00
80323;BME280;69636;52.372;13.610;2024-02-14T07:49:35;101459.81;;;4.24;100.00
80323;BME280;69636;52.372;13.610;2024-02-14T07:52:05;101461.97;;;4.31;100.00
80323;BME280;69636;52.372;13.610;2024-02-14T07:54:33;101465.44;;;4.32;100.00
80323;BME280;69636;52.372;13.610;2024-02-14T07:57:00;101468.34;;;4.27;100.00
80323;BME280;69636;52.372;13.610;2024-02-14T07:59:27;101473.09;;;4.49;100.00
80323;BME280;69636;52.372;13.610;2024-02-14T08:01:58;101476.66;;;4.48;100.00
80323;BME280;69636;52.372;13.610;2024-02-14T08:04:25;101481.50;;;4.41;100.00
80323;BME280;69636;52.372;13.610;2024-02-14T08:06:53;101472.63;;;4.42;100.00
80323;BME280;69636;52.372;13.610;2024-02-14T08:09:22;101481.88;;;4.35;100.00
80323;BME280;69636;52.372;13.610;2024-02-14T08:11:49;101479.63;;;4.29;100.00
80323;BME280;69636;52.372;13.610;2024-02-14T08:14:16;101481.59;;;4.40;100.00
80323;BME280;69636;52.372;13.610;2024-02-14T08:16:44;101480.59;;;4.55;100.00
80323;BME280;69636;52.372;13.610;2024-02-14T08:19:11;101471.88;;;4.55;100.00
80323;BME280;69636;52.372;13.610;2024-02-14T08:21:39;101471.78;;;4.56;100.00
80323;BME280;69636;52.372;13.610;2024-02-14T08:24:06;101463.69;;;4.59;100.00
80323;BME280;69636;52.372;13.610;2024-02-14T08:26:35;101467.72;;;4.65;100.00
80323;BME280;69636;52.372;13.610;2024-02-14T08:29:02;101461.56;;;4.78;100.00
80323;BME280;69636;52.372;13.610;2024-02-14T08:31:29;101461.78;;;4.75;100.00
80323;BME280;69636;52.372;13.610;2024-02-14T08:33:57;101462.03;;;4.85;100.00
80323;BME280;69636;52.372;13.610;2024-02-14T08:36:25;101461.53;;;4.93;100.00
80323;BME280;69636;52.372;13.610;2024-02-14T08:38:52;101454.16;;;4.98;100.00
80323;BME280;69636;52.372;13.610;2024-02-14T08:41:20;101456.75;;;5.12;100.00
80323;BME280;69636;52.372;13.610;2024-02-14T08:43:48;101454.88;;;5.27;100.00
80323;BME280;69636;52.372;13.610;2024-02-14T08:46:17;101458.03;;;5.19;100.00
80323;BME280;69636;52.372;13.610;2024-02-14T08:48:45;101452.78;;;5.19;100.00
80323;BME280;69636;52.372;13.610;2024-02-14T08:51:12;101456.56;;;5.15;100.00
80323;BME280;69636;52.372;13.610;2024-02-14T08:53:40;101460.16;;;5.27;100.00
80323;BME280;69636;52.372;13.610;2024-02-14T08:56:08;101460.94;;;5.41;100.00
80323;BME280;69636;52.372;13.610;2024-02-14T08:58:35;101459.78;;;5.45;100.00
80323;BME280;69636;52.372;13.610;2024-02-14T09:01:04;101457.22;;;5.31;100.00
80323;BME280;69636;52.372;13.610;2024-02-14T09:03:41;101454.78;;;5.28;100.00
80323;BME280;69636;52.372;13.610;2024-02-14T09:06:08;101456.81;;;5.37;100.00
80323;BME280;69636;52.372;13.610;2024-02-14T09:08:36;101452.50;;;5.36;100.00
80323;BME280;69636;52.372;13.610;2024-02-14T09:11:03;101459.53;;;5.49;100.00
80323;BME280;69636;52.372;13.610;2024-02-14T09:13:31;101458.09;;;5.57;100.00
80323;BME280;69636;52.372;13.610;2024-02-14T09:15:58;101461.25;;;5.62;100.00
80323;BME280;69636;52.372;13.610;2024-02-14T09:18:27;101453.78;;;5.56;100.00
80323;BME280;69636;52.372;13.610;2024-02-14T09:20:54;101458.53;;;5.64;100.00
80323;BME280;69636;52.372;13.610;2024-02-14T09:23:22;101451.56;;;5.63;100.00
80323;BME280;69636;52.372;13.610;2024-02-14T09:25:49;101454.00;;;5.66;100.00
80323;BME280;69636;52.372;13.610;2024-02-14T09:28:17;101457.88;;;5.73;100.00
80323;BME280;69636;52.372;13.610;2024-02-14T09:30:44;101457.16;;;5.71;100.00
80323;BME280;69636;52.372;13.610;2024-02-14T09:33:11;101455.38;;;5.71;100.00
80323;BME280;69636;52.372;13.610;2024-02-14T09:35:40;101453.25;;;5.76;100.00
80323;BME280;69636;52.372;13.610;2024-02-14T09:38:08;101455.69;;;5.79;100.00
80323;BME280;69636;52.372;13.610;2024-02-14T09:40:35;101459.34;;;5.77;100.00
80323;BME280;69636;52.372;13.610;2024-02-14T09:43:05;101453.69;;;5.70;100.00
80323;BME280;69636;52.372;13.610;2024-02-14T09:45:32;101456.44;;;5.69;100.00
80323;BME280;69636;52.372;13.610;2024-02-14T09:48:00;101456.19;;;5.72;100.00
80323;BME280;69636;52.372;13.610;2024-02-14T09:50:29;101452.84;;;5.83;100.00
80323;BME280;69636;52.372;13.610;2024-02-14T09:53:00;101453.19;;;5.91;100.00
80323;BME280;69636;52.372;13.610;2024-02-14T09:55:27;101456.25;;;5.97;100.00
80323;BME280;69636;52.372;13.610;2024-02-14T09:57:55;101452.94;;;6.06;100.00
80323;BME280;69636;52.372;13.610;2024-02-14T10:00:23;101457.38;;;6.06;100.00
80323;BME280;69636;52.372;13.610;2024-02-14T10:02:51;101449.69;;;6.03;100.00
80323;BME280;69636;52.372;13.610;2024-02-14T10:05:19;101462.56;;;6.07;100.00
80323;BME280;69636;52.372;13.610;2024-02-14T10:07:46;101464.25;;;5.96;100.00
80323;BME280;69636;52.372;13.610;2024-02-14T10:10:15;101462.47;;;5.96;100.00
80323;BME280;69636;52.372;13.610;2024-02-14T10:12:42;101463.06;;;5.87;100.00
80323;BME280;69636;52.372;13.610;2024-02-14T10:15:09;101464.03;;;5.99;100.00
80323;BME280;69636;52.372;13.610;2024-02-14T10:17:38;101459.09;;;5.94;100.00
80323;BME280;69636;52.372;13.610;2024-02-14T10:20:07;101461.09;;;5.91;100.00
80323;BME280;69636;52.372;13.610;2024-02-14T10:22:35;101457.25;;;5.82;100.00
80323;BME280;69636;52.372;13.610;2024-02-14T10:25:03;101455.50;;;5.95;100.00
80323;BME280;69636;52.372;13.610;2024-02-14T10:27:32;101462.97;;;6.01;100.00
80323;BME280;69636;52.372;13.610;2024-02-14T10:29:59;101456.09;;;6.24;100.00
80323;BME280;69636;52.372;13.610;2024-02-14T10:32:27;101446.69;;;6.33;100.00
80323;BME280;69636;52.372;13.610;2024-02-14T10:34:54;101448.16;;;6.37;100.00
80323;BME280;69636;52.372;13.610;2024-02-14T10:37:23;101445.63;;;6.35;100.00
80323;BME280;69636;52.372;13.610;2024-02-14T10:39:51;101443.19;;;6.45;100.00
80323;BME280;69636;52.372;13.610;2024-02-14T10:42:20;101449.47;;;6.19;100.00
80323;BME280;69636;52.372;13.610;2024-02-14T10:44:49;101443.16;;;6.21;100.00
80323;BME280;69636;52.372;13.610;2024-02-14T10:47:19;101445.22;;;6.29;100.00
80323;BME280;69636;52.372;13.610;2024-02-14T10:49:48;101443.47;;;6.17;100.00
80323;BME280;69636;52.372;13.610;2024-02-14T10:52:17;101439.09;;;6.28;100.00
80323;BME280;69636;52.372;13.610;2024-02-14T10:54:51;101441.88;;;6.51;100.00
80323;BME280;69636;52.372;13.610;2024-02-14T10:57:21;101440.91;;;6.64;100.00
80323;BME280;69636;52.372;13.610;2024-02-14T10:59:51;101436.34;;;6.90;100.00
80323;BME280;69636;52.372;13.610;2024-02-14T11:02:19;101430.97;;;6.92;100.00
80323;BME280;69636;52.372;13.610;2024-02-14T11:04:49;101423.44;;;6.98;100.00
80323;BME280;69636;52.372;13.610;2024-02-14T11:07:17;101419.69;;;6.90;100.00
80323;BME280;69636;52.372;13.610;2024-02-14T11:09:44;101417.31;;;6.98;100.00
80323;BME280;69636;52.372;13.610;2024-02-14T11:12:12;101424.13;;;7.24;100.00
80323;BME280;69636;52.372;13.610;2024-02-14T11:14:42;101416.94;;;7.26;100.00
80323;BME280;69636;52.372;13.610;2024-02-14T11:17:12;101421.91;;;7.42;100.00
80323;BME280;69636;52.372;13.610;2024-02-14T11:19:40;101410.03;;;7.47;100.00
80323;BME280;69636;52.372;13.610;2024-02-14T11:22:11;101418.19;;;7.56;100.00
80323;BME280;69636;52.372;13.610;2024-02-14T11:24:39;101415.66;;;7.54;100.00
80323;BME280;69636;52.372;13.610;2024-02-14T11:27:10;101406.00;;;7.31;100.00
80323;BME280;69636;52.372;13.610;2024-02-14T11:29:52;101416.22;;;7.24;100.00
80323;BME280;69636;52.372;13.610;2024-02-14T11:32:22;101413.53;;;7.13;100.00
80323;BME280;69636;52.372;13.610;2024-02-14T11:34:53;101411.72;;;7.13;100.00
80323;BME280;69636;52.372;13.610;2024-02-14T11:37:20;101415.16;;;7.03;100.00
80323;BME280;69636;52.372;13.610;2024-02-14T11:39:54;101414.19;;;6.93;100.00
80323;BME280;69636;52.372;13.610;2024-02-14T11:42:21;101408.69;;;6.96;100.00
80323;BME280;69636;52.372;13.610;2024-02-14T11:44:51;101411.03;;;6.88;100.00
80323;BME280;69636;52.372;13.610;2024-02-14T11:47:19;101415.88;;;6.94;100.00
80323;BME280;69636;52.372;13.610;2024-02-14T11:49:48;101413.94;;;6.96;100.00
80323;BME280;69636;52.372;13.610;2024-02-14T11:52:17;101399.81;;;6.97;100.00
80323;BME280;69636;52.372;13.610;2024-02-14T11:54:46;101411.81;;;7.01;100.00
80323;BME280;69636;52.372;13.610;2024-02-14T11:57:16;101413.56;;;7.24;100.00
80323;BME280;69636;52.372;13.610;2024-02-14T11:59:44;101413.06;;;7.19;100.00
80323;BME280;69636;52.372;13.610;2024-02-14T12:02:11;101414.72;;;7.09;100.00
80323;BME280;69636;52.372;13.610;2024-02-14T12:04:39;101410.78;;;7.14;100.00
80323;BME280;69636;52.372;13.610;2024-02-14T12:07:08;101413.56;;;7.24;100.00
80323;BME280;69636;52.372;13.610;2024-02-14T12:09:36;101413.81;;;7.21;100.00
80323;BME280;69636;52.372;13.610;2024-02-14T12:12:04;101411.72;;;7.13;100.00
80323;BME280;69636;52.372;13.610;2024-02-14T12:14:32;101411.38;;;7.18;100.00
80323;BME280;69636;52.372;13.610;2024-02-14T12:17:00;101410.94;;;7.24;100.00
80323;BME280;69636;52.372;13.610;2024-02-14T12:19:27;101403.97;;;7.23;100.00
80323;BME280;69636;52.372;13.610;2024-02-14T12:21:59;101406.38;;;7.26;100.00
80323;BME280;69636;52.372;13.610;2024-02-14T12:24:28;101409.38;;;7.33;100.00
80323;BME280;69636;52.372;13.610;2024-02-14T12:26:56;101411.91;;;7.34;100.00
80323;BME280;69636;52.372;13.610;2024-02-14T12:29:23;101417.91;;;7.36;100.00
80323;BME280;69636;52.372;13.610;2024-02-14T12:31:51;101413.00;;;7.43;100.00
80323;BME280;69636;52.372;13.610;2024-02-14T12:34:19;101411.94;;;7.45;100.00
80323;BME280;69636;52.372;13.610;2024-02-14T12:36:51;101410.25;;;7.44;100.00
80323;BME280;69636;52.372;13.610;2024-02-14T12:39:19;101407.28;;;7.49;100.00
80323;BME280;69636;52.372;13.610;2024-02-14T12:41:47;101399.94;;;7.53;100.00
80323;BME280;69636;52.372;13.610;2024-02-14T12:44:15;101404.72;;;7.36;100.00